createdAt,value
2017-02-05T00:00:03.272Z,992.93
2017-02-05T00:01:09.365Z,992.94
2017-02-05T00:02:14.495Z,992.88
2017-02-05T00:03:19.585Z,992.91
2017-02-05T00:04:25.677Z,992.89
2017-02-05T00:05:30.804Z,992.88
2017-02-05T00:06:36.916Z,992.87
2017-02-05T00:07:41.035Z,992.84
2017-02-05T00:08:46.159Z,992.88
2017-02-05T00:09:52.311Z,992.83
2017-02-05T00:10:57.462Z,992.86
2017-02-05T00:12:02.582Z,992.85
2017-02-05T00:13:08.662Z,992.86
2017-02-05T00:14:13.794Z,992.85
2017-02-05T00:15:18.913Z,992.86
2017-02-05T00:16:25.007Z,992.85
2017-02-05T00:17:29.174Z,992.85
2017-02-05T00:18:34.274Z,992.83
2017-02-05T00:19:40.363Z,992.8
2017-02-05T00:20:46.459Z,992.85
2017-02-05T00:21:52.548Z,992.77
2017-02-05T00:22:57.644Z,992.75
2017-02-05T00:24:02.778Z,992.8
2017-02-05T00:25:06.936Z,992.78
2017-02-05T00:26:13.033Z,992.78
2017-02-05T00:27:18.196Z,992.83
2017-02-05T00:28:23.302Z,992.83
2017-02-05T00:29:29.409Z,992.8
2017-02-05T00:30:34.533Z,992.83
2017-02-05T00:31:40.627Z,992.82
2017-02-05T00:32:45.740Z,992.8
2017-02-05T00:33:51.828Z,992.83
2017-02-05T00:34:57.930Z,992.85
2017-02-05T00:36:04.024Z,992.84
2017-02-05T00:37:09.153Z,992.82
2017-02-05T00:38:15.256Z,992.82
2017-02-05T00:39:20.383Z,992.89
2017-02-05T00:40:26.476Z,992.85
2017-02-05T00:41:31.574Z,992.85
2017-02-05T00:42:37.662Z,992.85
2017-02-05T00:43:42.759Z,992.88
2017-02-05T00:44:46.975Z,992.86
2017-02-05T00:45:53.066Z,992.86
2017-02-05T00:46:59.167Z,992.86
2017-02-05T00:48:05.257Z,992.84
2017-02-05T00:49:11.344Z,992.85
2017-02-05T00:50:17.453Z,992.89
2017-02-05T00:51:23.581Z,992.88
2017-02-05T00:52:29.645Z,992.87
2017-02-05T00:53:34.743Z,992.91
2017-02-05T00:54:39.875Z,992.91
2017-02-05T00:55:45.005Z,992.87
2017-02-05T00:56:50.128Z,992.9
2017-02-05T00:57:55.252Z,992.88
2017-02-05T00:59:01.372Z,992.89
2017-02-05T01:00:05.523Z,992.91
2017-02-05T01:01:09.649Z,992.89
2017-02-05T01:02:15.744Z,992.88
2017-02-05T01:03:20.871Z,992.87
2017-02-05T01:04:25.993Z,992.89
2017-02-05T01:05:32.094Z,992.94
2017-02-05T01:06:37.189Z,992.87
2017-02-05T01:07:41.374Z,992.9
2017-02-05T01:08:47.470Z,992.89
2017-02-05T01:09:52.597Z,992.88
2017-02-05T01:10:55.761Z,992.91
2017-02-05T01:12:00.898Z,992.87
2017-02-05T01:13:05.004Z,992.88
2017-02-05T01:14:10.134Z,992.91
2017-02-05T01:15:14.319Z,992.92
2017-02-05T01:16:19.415Z,992.93
2017-02-05T01:17:24.537Z,992.89
2017-02-05T01:18:28.707Z,992.94
2017-02-05T01:19:33.831Z,992.93
2017-02-05T01:20:39.910Z,992.91
2017-02-05T01:21:45.027Z,992.98
2017-02-05T01:22:50.132Z,992.98
2017-02-05T01:23:54.291Z,992.98
2017-02-05T01:25:00.395Z,993
2017-02-05T01:26:05.495Z,993
2017-02-05T01:27:10.614Z,992.98
2017-02-05T01:28:16.712Z,993.01
2017-02-05T01:29:22.807Z,992.97
2017-02-05T01:30:27.939Z,993.01
2017-02-05T01:31:33.052Z,993
2017-02-05T01:32:38.177Z,993.02
2017-02-05T01:33:43.323Z,993.03
2017-02-05T01:34:48.438Z,993.02
2017-02-05T01:35:54.534Z,992.99
2017-02-05T01:37:00.659Z,993.07
2017-02-05T01:38:05.836Z,993.09
2017-02-05T01:39:11.923Z,993.09
2017-02-05T01:40:16.060Z,993.06
2017-02-05T01:41:20.183Z,993.09
2017-02-05T01:42:25.309Z,993.05
2017-02-05T01:43:31.376Z,993.11
2017-02-05T01:44:36.536Z,993.09
2017-02-05T01:45:41.638Z,993.12
2017-02-05T01:46:47.796Z,993.13
2017-02-05T01:47:52.922Z,993.13
2017-02-05T01:48:57.101Z,993.1
2017-02-05T01:50:02.219Z,993.15
2017-02-05T01:51:08.313Z,993.13
2017-02-05T01:52:12.435Z,993.15
2017-02-05T01:53:16.589Z,993.15
2017-02-05T01:54:22.690Z,993.12
2017-02-05T01:55:27.786Z,993.15
2017-02-05T01:56:32.928Z,993.15
2017-02-05T01:57:38.045Z,993.14
2017-02-05T01:58:44.162Z,993.15
2017-02-05T01:59:48.315Z,993.2
2017-02-05T02:00:53.425Z,993.19
2017-02-05T02:01:58.554Z,993.19
2017-02-05T02:03:02.679Z,993.19
2017-02-05T02:04:08.785Z,993.19
2017-02-05T02:05:13.908Z,993.22
2017-02-05T02:06:19.035Z,993.13
2017-02-05T02:07:25.121Z,993.2
2017-02-05T02:08:30.255Z,993.19
2017-02-05T02:09:35.373Z,993.22
2017-02-05T02:10:39.534Z,993.17
2017-02-05T02:11:44.655Z,993.19
2017-02-05T02:12:50.745Z,993.2
2017-02-05T02:13:56.839Z,993.19
2017-02-05T02:15:01.971Z,993.23
2017-02-05T02:16:08.062Z,993.22
2017-02-05T02:17:13.189Z,993.24
2017-02-05T02:18:18.276Z,993.22
2017-02-05T02:19:23.385Z,993.23
2017-02-05T02:20:29.503Z,993.24
2017-02-05T02:21:35.593Z,993.26
2017-02-05T02:22:41.692Z,993.29
2017-02-05T02:23:46.822Z,993.28
2017-02-05T02:24:49.981Z,993.3
2017-02-05T02:25:56.091Z,993.27
2017-02-05T02:27:02.178Z,993.25
2017-02-05T02:28:08.272Z,993.25
2017-02-05T02:29:14.360Z,993.26
2017-02-05T02:30:20.456Z,993.29
2017-02-05T02:31:24.604Z,993.29
2017-02-05T02:32:27.776Z,993.27
2017-02-05T02:33:33.874Z,993.31
2017-02-05T02:34:39.975Z,993.3
2017-02-05T02:35:44.135Z,993.29
2017-02-05T02:36:49.258Z,993.27
2017-02-05T02:37:55.360Z,993.31
2017-02-05T02:39:01.460Z,993.26
2017-02-05T02:40:06.584Z,993.28
2017-02-05T02:41:12.683Z,993.29
2017-02-05T02:42:18.775Z,993.31
2017-02-05T02:43:23.868Z,993.29
2017-02-05T02:44:29.993Z,993.31
2017-02-05T02:45:35.074Z,993.32
2017-02-05T02:46:40.236Z,993.35
2017-02-05T02:47:46.337Z,993.35
2017-02-05T02:48:51.464Z,993.36
2017-02-05T02:49:57.555Z,993.34
2017-02-05T02:51:02.688Z,993.35
2017-02-05T02:52:08.790Z,993.38
2017-02-05T02:53:14.888Z,993.41
2017-02-05T02:54:20.979Z,993.37
2017-02-05T02:55:27.086Z,993.37
2017-02-05T02:56:31.221Z,993.37
2017-02-05T02:57:36.316Z,993.37
2017-02-05T02:58:38.533Z,993.36
2017-02-05T02:59:41.722Z,993.36
2017-02-05T03:00:47.823Z,993.34
2017-02-05T03:01:53.914Z,993.35
2017-02-05T03:02:59.045Z,993.35
2017-02-05T03:04:04.169Z,993.36
2017-02-05T03:05:10.273Z,993.37
2017-02-05T03:06:15.433Z,993.35
2017-02-05T03:07:21.488Z,993.34
2017-02-05T03:08:25.628Z,993.35
2017-02-05T03:09:30.770Z,993.33
2017-02-05T03:10:36.851Z,993.38
2017-02-05T03:11:41.972Z,993.39
2017-02-05T03:12:47.061Z,993.41
2017-02-05T03:13:53.162Z,993.38
2017-02-05T03:14:58.319Z,993.36
2017-02-05T03:16:04.394Z,993.41
2017-02-05T03:17:08.528Z,993.39
2017-02-05T03:18:14.633Z,993.42
2017-02-05T03:19:20.718Z,993.45
2017-02-05T03:20:24.859Z,993.47
2017-02-05T03:21:31.065Z,993.49
2017-02-05T03:22:35.194Z,993.47
2017-02-05T03:23:41.286Z,993.51
2017-02-05T03:24:46.394Z,993.52
2017-02-05T03:25:51.522Z,993.57
2017-02-05T03:26:57.627Z,993.55
2017-02-05T03:28:02.752Z,993.53
2017-02-05T03:29:07.851Z,993.55
2017-02-05T03:30:13.942Z,993.58
2017-02-05T03:31:19.127Z,993.59
2017-02-05T03:32:25.209Z,993.6
2017-02-05T03:33:31.306Z,993.58
2017-02-05T03:34:37.399Z,993.57
2017-02-05T03:35:41.523Z,993.56
2017-02-05T03:36:47.624Z,993.58
2017-02-05T03:37:52.744Z,993.55
2017-02-05T03:38:57.934Z,993.56
2017-02-05T03:40:02.078Z,993.62
2017-02-05T03:41:07.189Z,993.62
2017-02-05T03:42:13.284Z,993.56
2017-02-05T03:43:18.383Z,993.59
2017-02-05T03:44:22.551Z,993.55
2017-02-05T03:45:28.636Z,993.58
2017-02-05T03:46:33.757Z,993.58
2017-02-05T03:47:38.885Z,993.58
2017-02-05T03:48:43.013Z,993.6
2017-02-05T03:49:47.175Z,993.59
2017-02-05T03:50:52.293Z,993.52
2017-02-05T03:51:57.421Z,993.57
2017-02-05T03:53:03.532Z,993.58
2017-02-05T03:54:09.622Z,993.65
2017-02-05T03:55:14.719Z,993.64
2017-02-05T03:56:18.872Z,993.63
2017-02-05T03:57:23.040Z,993.6
2017-02-05T03:58:29.136Z,993.62
2017-02-05T03:59:35.231Z,993.67
2017-02-05T04:00:40.361Z,993.58
2017-02-05T04:01:46.460Z,993.65
2017-02-05T04:02:50.600Z,993.63
2017-02-05T04:03:54.730Z,993.67
2017-02-05T04:04:59.863Z,993.69
2017-02-05T04:06:05.951Z,993.68
2017-02-05T04:07:12.052Z,993.68
2017-02-05T04:08:18.144Z,993.74
2017-02-05T04:09:23.236Z,993.71
2017-02-05T04:10:29.339Z,993.75
2017-02-05T04:11:33.495Z,993.76
2017-02-05T04:12:39.584Z,993.73
2017-02-05T04:13:44.707Z,993.71
2017-02-05T04:14:49.838Z,993.73
2017-02-05T04:15:54.962Z,993.77
2017-02-05T04:17:00.081Z,993.74
2017-02-05T04:18:04.238Z,993.75
2017-02-05T04:19:06.432Z,993.76
2017-02-05T04:20:11.552Z,993.79
2017-02-05T04:21:16.645Z,993.75
2017-02-05T04:22:21.750Z,993.76
2017-02-05T04:23:25.915Z,993.81
2017-02-05T04:24:29.103Z,993.76
2017-02-05T04:25:34.224Z,993.75
2017-02-05T04:26:40.321Z,993.74
2017-02-05T04:27:46.416Z,993.77
2017-02-05T04:28:50.600Z,993.76
2017-02-05T04:29:55.703Z,993.79
2017-02-05T04:31:00.889Z,993.79
2017-02-05T04:32:06.022Z,993.77
2017-02-05T04:33:09.201Z,993.76
2017-02-05T04:34:15.275Z,993.78
2017-02-05T04:35:19.431Z,993.78
2017-02-05T04:36:23.554Z,993.8
2017-02-05T04:37:29.655Z,993.83
2017-02-05T04:38:35.737Z,993.84
2017-02-05T04:39:41.840Z,993.88
2017-02-05T04:40:46.955Z,993.84
2017-02-05T04:41:53.050Z,993.9
2017-02-05T04:42:58.183Z,993.91
2017-02-05T04:44:03.278Z,993.92
2017-02-05T04:45:08.405Z,993.93
2017-02-05T04:46:14.501Z,993.9
2017-02-05T04:47:20.589Z,993.93
2017-02-05T04:48:26.690Z,993.93
2017-02-05T04:49:31.820Z,993.92
2017-02-05T04:50:36.946Z,993.97
2017-02-05T04:51:42.051Z,993.95
2017-02-05T04:52:47.176Z,993.94
2017-02-05T04:53:51.357Z,993.94
2017-02-05T04:54:56.461Z,993.93
2017-02-05T04:56:02.552Z,993.93
2017-02-05T04:57:08.646Z,993.94
2017-02-05T04:58:13.767Z,993.94
2017-02-05T04:59:19.913Z,993.96
2017-02-05T05:00:25.997Z,993.96
2017-02-05T05:01:31.095Z,993.93
2017-02-05T05:02:37.251Z,993.98
2017-02-05T05:03:43.344Z,993.99
2017-02-05T05:04:48.444Z,994.03
2017-02-05T05:05:54.548Z,994.05
2017-02-05T05:07:00.641Z,994.02
2017-02-05T05:08:06.741Z,994.04
2017-02-05T05:09:11.867Z,994.02
2017-02-05T05:10:16.992Z,994.04
2017-02-05T05:11:22.115Z,994.03
2017-02-05T05:12:28.216Z,994
2017-02-05T05:13:33.348Z,994.06
2017-02-05T05:14:37.506Z,994
2017-02-05T05:15:42.644Z,994.04
2017-02-05T05:16:48.736Z,994.04
2017-02-05T05:17:53.823Z,994.08
2017-02-05T05:18:59.909Z,994.05
2017-02-05T05:20:05.998Z,994.02
2017-02-05T05:21:12.124Z,994.05
2017-02-05T05:22:18.209Z,994
2017-02-05T05:23:23.337Z,994.02
2017-02-05T05:24:28.465Z,994.05
2017-02-05T05:25:34.609Z,994.07
2017-02-05T05:26:40.699Z,994.07
2017-02-05T05:27:44.823Z,994.1
2017-02-05T05:28:50.911Z,994.08
2017-02-05T05:29:57.020Z,994.08
2017-02-05T05:31:02.134Z,994.07
2017-02-05T05:32:07.256Z,994.13
2017-02-05T05:33:11.431Z,994.09
2017-02-05T05:34:17.527Z,994.09
2017-02-05T05:35:22.657Z,994.11
2017-02-05T05:36:27.759Z,994.14
2017-02-05T05:37:32.951Z,994.17
2017-02-05T05:38:39.034Z,994.1
2017-02-05T05:39:44.131Z,994.16
2017-02-05T05:40:49.256Z,994.15
2017-02-05T05:41:55.340Z,994.22
2017-02-05T05:43:00.441Z,994.2
2017-02-05T05:44:06.551Z,994.21
2017-02-05T05:45:11.673Z,994.23
2017-02-05T05:46:16.795Z,994.22
2017-02-05T05:47:22.888Z,994.27
2017-02-05T05:48:28.978Z,994.29
2017-02-05T05:49:34.126Z,994.27
2017-02-05T05:50:40.224Z,994.3
2017-02-05T05:51:46.342Z,994.27
2017-02-05T05:52:50.465Z,994.26
2017-02-05T05:53:56.584Z,994.27
2017-02-05T05:55:02.659Z,994.25
2017-02-05T05:56:07.785Z,994.26
2017-02-05T05:57:12.907Z,994.24
2017-02-05T05:58:18.032Z,994.24
2017-02-05T05:59:24.128Z,994.23
2017-02-05T06:00:30.225Z,994.23
2017-02-05T06:01:36.314Z,994.23
2017-02-05T06:02:41.440Z,994.23
2017-02-05T06:03:46.553Z,994.16
2017-02-05T06:04:52.643Z,994.18
2017-02-05T06:05:56.777Z,994.18
2017-02-05T06:07:01.904Z,994.18
2017-02-05T06:08:06.050Z,994.17
2017-02-05T06:09:11.177Z,994.2
2017-02-05T06:10:16.310Z,994.2
2017-02-05T06:11:21.412Z,994.21
2017-02-05T06:12:27.562Z,994.2
2017-02-05T06:13:33.672Z,994.22
2017-02-05T06:14:39.770Z,994.22
2017-02-05T06:15:44.899Z,994.26
2017-02-05T06:16:49.033Z,994.23
2017-02-05T06:17:54.157Z,994.28
2017-02-05T06:18:58.319Z,994.28
2017-02-05T06:20:01.477Z,994.25
2017-02-05T06:21:06.596Z,994.25
2017-02-05T06:22:10.763Z,994.25
2017-02-05T06:23:16.853Z,994.24
2017-02-05T06:24:22.953Z,994.26
2017-02-05T06:25:29.058Z,994.24
2017-02-05T06:26:34.180Z,994.19
2017-02-05T06:27:39.303Z,994.17
2017-02-05T06:28:44.430Z,994.17
2017-02-05T06:29:47.598Z,994.19
2017-02-05T06:30:52.712Z,994.18
2017-02-05T06:31:55.885Z,994.18
2017-02-05T06:32:59.046Z,994.19
2017-02-05T06:34:05.141Z,994.21
2017-02-05T06:35:10.275Z,994.19
2017-02-05T06:36:16.373Z,994.19
2017-02-05T06:37:21.466Z,994.18
2017-02-05T06:38:26.589Z,994.19
2017-02-05T06:39:32.731Z,994.18
2017-02-05T06:40:38.802Z,994.24
2017-02-05T06:41:44.896Z,994.18
2017-02-05T06:42:49.106Z,994.21
2017-02-05T06:43:54.226Z,994.25
2017-02-05T06:44:59.350Z,994.25
2017-02-05T06:46:03.506Z,994.24
2017-02-05T06:47:08.633Z,994.27
2017-02-05T06:48:12.775Z,994.27
2017-02-05T06:49:17.918Z,994.28
2017-02-05T06:50:23.021Z,994.31
2017-02-05T06:51:28.160Z,994.35
2017-02-05T06:52:33.413Z,994.28
2017-02-05T06:53:39.500Z,994.34
2017-02-05T06:54:44.601Z,994.3
2017-02-05T06:55:50.707Z,994.29
2017-02-05T06:56:55.813Z,994.28
2017-02-05T06:58:01.942Z,994.28
2017-02-05T06:59:08.002Z,994.3
2017-02-05T07:00:12.247Z,994.31
2017-02-05T07:01:18.341Z,994.31
2017-02-05T07:02:22.471Z,994.32
2017-02-05T07:03:28.564Z,994.31
2017-02-05T07:04:34.688Z,994.34
2017-02-05T07:05:39.759Z,994.3
2017-02-05T07:06:45.861Z,994.3
2017-02-05T07:07:51.958Z,994.29
2017-02-05T07:08:55.176Z,994.3
2017-02-05T07:10:01.272Z,994.31
2017-02-05T07:11:07.366Z,994.32
2017-02-05T07:12:13.465Z,994.35
2017-02-05T07:14:23.734Z,994.38
2017-02-05T07:15:28.861Z,994.36
2017-02-05T07:16:34.952Z,994.37
2017-02-05T07:17:40.084Z,994.38
2017-02-05T07:18:44.202Z,994.39
2017-02-05T07:19:50.307Z,994.39
2017-02-05T07:20:56.398Z,994.39
2017-02-05T07:22:02.496Z,994.44
2017-02-05T07:23:07.624Z,994.38
2017-02-05T07:24:13.718Z,994.43
2017-02-05T07:25:18.848Z,994.48
2017-02-05T07:26:24.952Z,994.45
2017-02-05T07:27:30.058Z,994.47
2017-02-05T07:28:35.173Z,994.45
2017-02-05T07:29:40.299Z,994.45
2017-02-05T07:30:45.403Z,994.43
2017-02-05T07:31:49.582Z,994.5
2017-02-05T07:32:55.680Z,994.52
2017-02-05T07:33:59.839Z,994.51
2017-02-05T07:35:03.999Z,994.53
2017-02-05T07:36:10.100Z,994.53
2017-02-05T07:37:16.193Z,994.57
2017-02-05T07:38:22.330Z,994.57
2017-02-05T07:39:27.432Z,994.55
2017-02-05T07:40:33.529Z,994.57
2017-02-05T07:41:38.655Z,994.56
2017-02-05T07:42:44.751Z,994.59
2017-02-05T07:43:49.872Z,994.65
2017-02-05T07:44:55.979Z,994.63
2017-02-05T07:46:01.112Z,994.64
2017-02-05T07:47:07.210Z,994.66
2017-02-05T07:48:13.305Z,994.66
2017-02-05T07:49:18.400Z,994.69
2017-02-05T07:50:24.494Z,994.67
2017-02-05T07:51:29.626Z,994.68
2017-02-05T07:52:35.722Z,994.7
2017-02-05T07:53:40.819Z,994.71
2017-02-05T07:54:45.999Z,994.71
2017-02-05T07:55:51.121Z,994.78
2017-02-05T07:56:56.217Z,994.73
2017-02-05T07:58:02.304Z,994.75
2017-02-05T07:59:06.458Z,994.75
2017-02-05T08:00:11.589Z,994.75
2017-02-05T08:01:16.716Z,994.72
2017-02-05T08:02:22.836Z,994.73
2017-02-05T08:03:28.922Z,994.72
2017-02-05T08:04:34.053Z,994.73
2017-02-05T08:05:39.176Z,994.74
2017-02-05T08:06:45.269Z,994.76
2017-02-05T08:07:50.392Z,994.75
2017-02-05T08:08:55.520Z,994.77
2017-02-05T08:10:01.612Z,994.72
2017-02-05T08:11:06.714Z,994.75
2017-02-05T08:12:11.809Z,994.72
2017-02-05T08:13:17.902Z,994.72
2017-02-05T08:14:24.007Z,994.75
2017-02-05T08:15:29.137Z,994.74
2017-02-05T08:16:33.261Z,994.74
2017-02-05T08:17:38.383Z,994.75
2017-02-05T08:18:43.560Z,994.75
2017-02-05T08:19:49.655Z,994.75
2017-02-05T08:20:54.795Z,994.75
2017-02-05T08:21:58.917Z,994.78
2017-02-05T08:23:04.028Z,994.74
2017-02-05T08:24:10.130Z,994.72
2017-02-05T08:25:16.236Z,994.75
2017-02-05T08:26:20.368Z,994.75
2017-02-05T08:27:26.477Z,994.78
2017-02-05T08:28:31.616Z,994.8
2017-02-05T08:29:37.710Z,994.81
2017-02-05T08:30:42.830Z,994.8
2017-02-05T08:31:47.961Z,994.79
2017-02-05T08:32:54.059Z,994.82
2017-02-05T08:34:00.152Z,994.84
2017-02-05T08:35:06.247Z,994.82
2017-02-05T08:36:10.417Z,994.86
2017-02-05T08:37:14.575Z,994.88
2017-02-05T08:38:20.689Z,994.88
2017-02-05T08:39:25.815Z,994.89
2017-02-05T08:40:30.925Z,994.9
2017-02-05T08:41:36.052Z,994.94
2017-02-05T08:42:42.152Z,994.95
2017-02-05T08:43:47.252Z,994.96
2017-02-05T08:44:53.394Z,995
2017-02-05T08:45:57.579Z,995
2017-02-05T08:47:02.717Z,995
2017-02-05T08:48:06.857Z,995
2017-02-05T08:49:11.985Z,995.01
2017-02-05T08:50:18.085Z,994.99
2017-02-05T08:51:22.250Z,994.97
2017-02-05T08:52:28.398Z,994.99
2017-02-05T08:53:33.465Z,994.97
2017-02-05T08:54:39.560Z,994.95
2017-02-05T08:55:45.667Z,995.02
2017-02-05T08:56:48.860Z,994.98
2017-02-05T08:57:53.986Z,995.04
2017-02-05T08:58:58.116Z,995.04
2017-02-05T09:00:04.237Z,995.09
2017-02-05T09:01:10.446Z,995.1
2017-02-05T09:02:14.606Z,995.09
2017-02-05T09:03:19.737Z,995.13
2017-02-05T09:04:25.833Z,995.13
2017-02-05T09:05:29.948Z,995.15
2017-02-05T09:06:34.108Z,995.1
2017-02-05T09:07:40.200Z,995.09
2017-02-05T09:08:44.374Z,995.12
2017-02-05T09:09:50.458Z,995.12
2017-02-05T09:10:56.545Z,995.12
2017-02-05T09:12:00.670Z,995.13
2017-02-05T09:13:04.829Z,995.13
2017-02-05T09:14:10.926Z,995.12
2017-02-05T09:15:16.054Z,995.13
2017-02-05T09:16:22.164Z,995.09
2017-02-05T09:17:25.325Z,995.11
2017-02-05T09:18:31.428Z,995.07
2017-02-05T09:19:36.556Z,995.08
2017-02-05T09:20:39.749Z,995.11
2017-02-05T09:21:45.848Z,995.12
2017-02-05T09:22:49.979Z,995.1
2017-02-05T09:23:55.081Z,995.09
2017-02-05T09:25:00.217Z,995.08
2017-02-05T09:26:06.318Z,995.11
2017-02-05T09:27:12.417Z,995.09
2017-02-05T09:28:18.512Z,995.1
2017-02-05T09:29:23.634Z,995.08
2017-02-05T09:30:26.846Z,995.06
2017-02-05T09:31:32.934Z,995.1
2017-02-05T09:32:39.039Z,995.04
2017-02-05T09:33:44.177Z,995.07
2017-02-05T09:34:50.306Z,995.07
2017-02-05T09:35:56.397Z,995.09
2017-02-05T09:37:01.506Z,995.07
2017-02-05T09:38:07.600Z,995.06
2017-02-05T09:39:13.697Z,995.1
2017-02-05T09:40:18.821Z,995.11
2017-02-05T09:41:23.962Z,995.14
2017-02-05T09:42:30.065Z,995.18
2017-02-05T09:43:36.143Z,995.16
2017-02-05T09:44:42.238Z,995.16
2017-02-05T09:45:48.328Z,995.14
2017-02-05T09:46:51.497Z,995.18
2017-02-05T09:47:56.626Z,995.15
2017-02-05T09:49:01.762Z,995.16
2017-02-05T09:50:06.893Z,995.17
2017-02-05T09:51:12.991Z,995.17
2017-02-05T09:52:19.085Z,995.19
2017-02-05T09:53:25.169Z,995.22
2017-02-05T09:54:30.302Z,995.21
2017-02-05T09:55:35.418Z,995.23
2017-02-05T09:56:40.581Z,995.23
2017-02-05T09:57:45.641Z,995.21
2017-02-05T09:58:50.762Z,995.24
2017-02-05T09:59:55.888Z,995.19
2017-02-05T10:01:01.024Z,995.22
2017-02-05T10:02:07.143Z,995.2
2017-02-05T10:03:11.286Z,995.22
2017-02-05T10:04:15.445Z,995.25
2017-02-05T10:05:21.539Z,995.23
2017-02-05T10:06:27.643Z,995.27
2017-02-05T10:07:33.742Z,995.28
2017-02-05T10:08:38.866Z,995.33
2017-02-05T10:09:43.968Z,995.35
2017-02-05T10:10:49.098Z,995.39
2017-02-05T10:11:54.221Z,995.43
2017-02-05T10:12:58.366Z,995.44
2017-02-05T10:14:04.472Z,995.43
2017-02-05T10:15:10.566Z,995.49
2017-02-05T10:16:14.702Z,995.5
2017-02-05T10:17:20.791Z,995.47
2017-02-05T10:18:25.921Z,995.49
2017-02-05T10:19:30.086Z,995.46
2017-02-05T10:20:35.218Z,995.51
2017-02-05T10:21:41.313Z,995.51
2017-02-05T10:22:46.446Z,995.45
2017-02-05T10:23:51.580Z,995.42
2017-02-05T10:24:56.697Z,995.42
2017-02-05T10:26:01.816Z,995.37
2017-02-05T10:27:06.946Z,995.37
2017-02-05T10:28:11.117Z,995.33
2017-02-05T10:29:17.201Z,995.37
2017-02-05T10:30:22.338Z,995.34
2017-02-05T10:31:27.465Z,995.37
2017-02-05T10:32:33.569Z,995.33
2017-02-05T10:33:38.754Z,995.36
2017-02-05T10:34:44.814Z,995.36
2017-02-05T10:35:49.964Z,995.34
2017-02-05T10:36:55.108Z,995.35
2017-02-05T10:38:00.346Z,995.33
2017-02-05T10:39:04.490Z,995.35
2017-02-05T10:40:10.593Z,995.35
2017-02-05T10:41:16.684Z,995.34
2017-02-05T10:42:21.809Z,995.37
2017-02-05T10:43:27.919Z,995.37
2017-02-05T10:44:33.048Z,995.37
2017-02-05T10:45:38.188Z,995.37
2017-02-05T10:46:44.308Z,995.34
2017-02-05T10:47:49.423Z,995.37
2017-02-05T10:48:54.551Z,995.39
2017-02-05T10:49:58.725Z,995.4
2017-02-05T10:51:03.872Z,995.42
2017-02-05T10:52:09.005Z,995.41
2017-02-05T10:53:14.137Z,995.45
2017-02-05T10:54:18.274Z,995.42
2017-02-05T10:55:24.373Z,995.42
2017-02-05T10:56:30.509Z,995.36
2017-02-05T10:57:36.600Z,995.39
2017-02-05T10:58:40.756Z,995.32
2017-02-05T10:59:46.856Z,995.31
2017-02-05T11:00:52.977Z,995.29
2017-02-05T11:01:59.039Z,995.33
2017-02-05T11:03:02.251Z,995.36
2017-02-05T11:04:08.357Z,995.37
2017-02-05T11:05:14.496Z,995.37
2017-02-05T11:06:19.591Z,995.37
2017-02-05T11:07:25.723Z,995.38
2017-02-05T11:08:29.886Z,995.38
2017-02-05T11:09:35.985Z,995.38
2017-02-05T11:10:41.145Z,995.4
2017-02-05T11:11:47.226Z,995.39
2017-02-05T11:12:53.357Z,995.4
2017-02-05T11:13:59.455Z,995.38
2017-02-05T11:16:09.693Z,995.35
2017-02-05T11:17:14.828Z,995.34
2017-02-05T11:18:20.930Z,995.35
2017-02-05T11:19:27.029Z,995.36
2017-02-05T11:20:31.169Z,995.37
2017-02-05T11:21:36.324Z,995.34
2017-02-05T11:22:39.517Z,995.35
2017-02-05T11:23:43.680Z,995.39
2017-02-05T11:24:49.784Z,995.4
2017-02-05T11:25:55.882Z,995.42
2017-02-05T11:27:01.030Z,995.39
2017-02-05T11:28:07.136Z,995.34
2017-02-05T11:29:12.237Z,995.39
2017-02-05T11:30:16.420Z,995.38
2017-02-05T11:31:21.556Z,995.3
2017-02-05T11:32:25.697Z,995.24
2017-02-05T11:33:31.796Z,995.2
2017-02-05T11:34:35.968Z,995.16
2017-02-05T11:35:40.130Z,995.09
2017-02-05T11:36:46.227Z,995.11
2017-02-05T11:37:51.349Z,995.1
2017-02-05T11:38:57.445Z,995.11
2017-02-05T11:40:01.609Z,995.14
2017-02-05T11:41:07.708Z,995.09
2017-02-05T11:42:13.810Z,995.09
2017-02-05T11:43:19.920Z,995.08
2017-02-05T11:44:25.041Z,995.07
2017-02-05T11:45:28.226Z,995.03
2017-02-05T11:46:34.316Z,995.08
2017-02-05T11:47:40.414Z,995.09
2017-02-05T11:48:45.545Z,995.1
2017-02-05T11:49:50.673Z,995.13
2017-02-05T11:50:55.802Z,995.11
2017-02-05T11:52:01.912Z,995.1
2017-02-05T11:53:06.055Z,995.17
2017-02-05T11:54:10.182Z,995.17
2017-02-05T11:55:16.286Z,995.16
2017-02-05T11:56:21.430Z,995.13
2017-02-05T11:57:27.527Z,995.16
2017-02-05T11:58:32.673Z,995.17
2017-02-05T11:59:37.806Z,995.21
2017-02-05T12:00:43.899Z,995.22
2017-02-05T12:01:49.034Z,995.18
2017-02-05T12:02:55.129Z,995.26
2017-02-05T12:04:00.277Z,995.31
2017-02-05T12:05:05.421Z,995.31
2017-02-05T12:06:11.534Z,995.37
2017-02-05T12:07:17.642Z,995.39
2017-02-05T12:08:23.736Z,995.43
2017-02-05T12:09:28.836Z,995.42
2017-02-05T12:10:33.974Z,995.42
2017-02-05T12:11:39.139Z,995.36
2017-02-05T12:12:45.203Z,995.39
2017-02-05T12:13:49.334Z,995.37
2017-02-05T12:14:54.510Z,995.38
2017-02-05T12:16:00.655Z,995.34
2017-02-05T12:17:05.779Z,995.35
2017-02-05T12:18:09.943Z,995.26
2017-02-05T12:19:16.048Z,995.2
2017-02-05T12:20:22.178Z,995.27
2017-02-05T12:21:28.249Z,995.27
2017-02-05T12:22:34.343Z,995.3
2017-02-05T12:23:38.523Z,995.3
2017-02-05T12:24:44.609Z,995.3
2017-02-05T12:25:48.745Z,995.26
2017-02-05T12:26:53.870Z,995.25
2017-02-05T12:27:59.010Z,995.24
2017-02-05T12:29:05.102Z,995.25
2017-02-05T12:30:10.239Z,995.25
2017-02-05T12:31:15.341Z,995.27
2017-02-05T12:32:20.469Z,995.3
2017-02-05T12:33:24.609Z,995.35
2017-02-05T12:34:30.710Z,995.38
2017-02-05T12:35:35.808Z,995.46
2017-02-05T12:36:39.969Z,995.41
2017-02-05T12:37:46.073Z,995.44
2017-02-05T12:38:50.211Z,995.47
2017-02-05T12:39:55.340Z,995.43
2017-02-05T12:41:00.469Z,995.5
2017-02-05T12:42:06.597Z,995.49
2017-02-05T12:43:12.704Z,995.5
2017-02-05T12:44:17.840Z,995.52
2017-02-05T12:45:21.996Z,995.56
2017-02-05T12:46:28.105Z,995.53
2017-02-05T12:47:34.206Z,995.46
2017-02-05T12:48:39.319Z,995.47
2017-02-05T12:49:45.413Z,995.43
2017-02-05T12:50:50.558Z,995.5
2017-02-05T12:51:55.705Z,995.49
2017-02-05T12:53:01.800Z,995.51
2017-02-05T12:54:05.960Z,995.52
2017-02-05T12:55:10.145Z,995.51
2017-02-05T12:56:16.263Z,995.48
2017-02-05T12:57:20.466Z,995.48
2017-02-05T12:58:25.605Z,995.52
2017-02-05T12:59:29.755Z,995.51
2017-02-05T13:00:35.869Z,995.51
2017-02-05T13:01:41.978Z,995.49
2017-02-05T13:02:48.091Z,995.52
2017-02-05T13:03:53.221Z,995.48
2017-02-05T13:04:58.508Z,995.43
2017-02-05T13:06:03.646Z,995.44
2017-02-05T13:07:09.739Z,995.36
2017-02-05T13:08:15.841Z,995.4
2017-02-05T13:09:21.937Z,995.4
2017-02-05T13:10:28.035Z,995.36
2017-02-05T13:11:32.171Z,995.39
2017-02-05T13:12:38.258Z,995.38
2017-02-05T13:13:43.372Z,995.42
2017-02-05T13:14:47.513Z,995.42
2017-02-05T13:15:52.651Z,995.45
2017-02-05T13:16:57.772Z,995.43
2017-02-05T13:18:03.890Z,995.46
2017-02-05T13:19:09.005Z,995.42
2017-02-05T13:20:15.167Z,995.43
2017-02-05T13:21:20.271Z,995.4
2017-02-05T13:22:26.379Z,995.41
2017-02-05T13:23:32.534Z,995.41
2017-02-05T13:24:36.698Z,995.39
2017-02-05T13:25:41.827Z,995.35
2017-02-05T13:26:47.925Z,995.41
2017-02-05T13:27:54.020Z,995.36
2017-02-05T13:29:00.250Z,995.32
2017-02-05T13:30:05.382Z,995.35
2017-02-05T13:31:11.480Z,995.38
2017-02-05T13:32:16.593Z,995.41
2017-02-05T13:33:21.727Z,995.39
2017-02-05T13:34:27.823Z,995.36
2017-02-05T13:35:31.958Z,995.32
2017-02-05T13:36:37.069Z,995.32
2017-02-05T13:37:42.173Z,995.33
2017-02-05T13:38:48.294Z,995.35
2017-02-05T13:39:53.382Z,995.34